Terminal Aerodrome Forecast
Issued by NWS Caribou, ME

Home | Current Version | Previous Version | Text Only | Print | Product List | Glossary On
Versions: 1 2 3 4 5 6 7 8 9 10 11 12 13 14 15 16
159
FTUS41 KCAR 131553 AAA
TAFBGR
TAF AMD
KBGR 131553Z 1316/1412 35009KT 3/4SM -SN OVC020
     FM131800 03008KT 3SM -SHSN OVC040
     FM132300 33013G22KT 5SM -SHSN BKN035
     FM141100 32012G22KT P6SM SCT050=

USA.gov is the U.S. government's official web portal to all federal, state and local government web resources and services.